Time;durP1;ratioP1;P1;durP2;ratioP2;P2;SDS_P1;SDS_P2;PMS_P1;PMS_P2;Temp;Humidity;BMP_temperature;BMP_pressure;BME280_temperature;BME280_humidity;BME280_pressure;Samples;Min_cycle;Max_cycle;Signal;HPM_P1;HPM_P2
2022/09/06 00:01:18;;;;;;;6.20;4.70;;;;;;;18.64;65.14;100110.03;5024107;28;20039;-71
2022/09/06 00:03:44;;;;;;;5.47;4.40;;;;;;;18.75;64.62;100115.88;5032486;28;20101;-71
2022/09/06 00:06:13;;;;;;;4.97;4.07;;;;;;;18.71;65.14;100115.00;5012098;28;20040;-71
2022/09/06 00:08:39;;;;;;;6.32;3.83;;;;;;;18.78;64.69;100123.66;5031505;28;20026;-71
2022/09/06 00:11:06;;;;;;;9.95;4.18;;;;;;;18.72;64.70;100119.47;5013950;28;20072;-71
2022/09/06 00:13:32;;;;;;;7.78;3.97;;;;;;;18.43;65.67;100123.75;5013341;28;20033;-71
2022/09/06 00:16:13;;;;;;;5.57;4.22;;;;;;;18.15;66.99;100130.44;5036530;28;20052;-71
2022/09/06 00:18:39;;;;;;;7.85;4.65;;;;;;;17.34;69.77;100127.75;5036520;28;20060;-71
2022/09/06 00:21:23;;;;;;;13.82;5.25;;;;;;;16.83;72.05;100111.47;5030789;28;20099;-71
2022/09/06 00:23:49;;;;;;;8.32;4.40;;;;;;;16.63;72.96;100128.25;5030676;28;20025;-71
2022/09/06 00:26:15;;;;;;;13.73;4.85;;;;;;;16.49;74.08;100128.69;5031333;28;20033;-71
2022/09/06 00:28:41;;;;;;;5.60;4.95;;;;;;;16.41;74.32;100124.00;5029221;28;20037;-71
2022/09/06 00:31:12;;;;;;;7.78;5.03;;;;;;;16.31;74.49;100124.53;5008770;28;20022;-71
2022/09/06 00:33:38;;;;;;;5.28;4.68;;;;;;;16.24;75.05;100127.94;5028607;28;20035;-71
2022/09/06 00:36:03;;;;;;;6.00;4.53;;;;;;;16.10;75.14;100117.88;5013692;28;20029;-71
2022/09/06 00:38:29;;;;;;;10.63;5.63;;;;;;;15.63;77.13;100121.22;5030720;28;20030;-71
2022/09/06 00:40:56;;;;;;;8.95;4.53;;;;;;;15.90;76.26;100116.03;5013502;28;20491;-71
2022/09/06 00:43:21;;;;;;;8.00;4.78;;;;;;;15.81;75.98;100111.34;5029947;28;20056;-71
2022/09/06 00:45:48;;;;;;;7.25;5.35;;;;;;;15.69;76.76;100114.19;5042753;28;20029;-71
2022/09/06 00:48:14;;;;;;;7.13;5.63;;;;;;;16.02;75.91;100109.56;5040702;28;20056;-71
2022/09/06 00:50:40;;;;;;;8.35;5.47;;;;;;;16.48;73.68;100106.47;5029921;28;20528;-71
2022/09/06 00:53:05;;;;;;;8.07;4.93;;;;;;;16.52;73.02;100110.19;5030302;28;20112;-71
2022/09/06 00:55:31;;;;;;;8.43;4.82;;;;;;;16.84;71.96;100113.09;5031956;28;20025;-71
2022/09/06 00:57:57;;;;;;;8.13;5.60;;;;;;;16.94;70.93;100109.75;5033965;28;20025;-71
2022/09/06 01:00:22;;;;;;;7.03;4.72;;;;;;;17.21;70.05;100112.88;5041962;28;20029;-71
2022/09/06 01:02:48;;;;;;;9.48;4.70;;;;;;;17.35;69.14;100122.91;5050307;28;20036;-71
2022/09/06 01:05:15;;;;;;;8.80;4.85;;;;;;;17.41;68.61;100112.97;5055029;28;20442;-71
2022/09/06 01:07:56;;;;;;;10.18;4.78;;;;;;;16.96;69.88;100101.72;5034506;28;20021;-71
2022/09/06 01:10:24;;;;;;;11.30;4.68;;;;;;;17.21;69.89;100121.34;5017064;28;20034;-71
2022/09/06 01:12:57;;;;;;;7.97;5.13;;;;;;;17.04;69.71;100114.06;5016793;28;20042;-71
2022/09/06 01:15:37;;;;;;;7.38;5.13;;;;;;;17.05;69.92;100118.53;5034087;28;20111;-71
2022/09/06 01:18:13;;;;;;;5.05;4.25;;;;;;;17.25;69.19;100122.28;5015901;28;20504;-71
2022/09/06 01:21:13;;;;;;;9.38;5.70;;;;;;;16.76;70.50;100116.91;5034191;28;20104;-71
2022/09/06 01:24:15;;;;;;;8.10;5.28;;;;;;;16.78;71.03;100101.25;5043281;28;20112;-71
2022/09/06 01:26:53;;;;;;;6.40;4.88;;;;;;;17.23;69.10;100102.03;5036272;28;20119;-70
2022/09/06 01:30:04;;;;;;;8.65;4.30;;;;;;;17.21;68.48;100100.75;5035737;28;20059;-71
2022/09/06 01:32:29;;;;;;;11.32;4.68;;;;;;;17.32;68.41;100104.69;4934763;29;20043;-71
2022/09/06 01:35:09;;;;;;;6.68;4.72;;;;;;;16.20;72.17;100096.00;4918893;29;20661;-70
2022/09/06 01:37:35;;;;;;;9.27;5.38;;;;;;;16.17;72.74;100106.00;4989938;28;20112;-71
2022/09/06 01:40:00;;;;;;;7.75;5.25;;;;;;;16.59;71.06;100093.47;5016506;28;20416;-71
2022/09/06 01:42:30;;;;;;;8.40;5.38;;;;;;;16.83;69.99;100088.84;5016284;28;20055;-71
2022/09/06 01:45:00;;;;;;;7.38;5.10;;;;;;;17.03;69.30;100089.81;5033266;28;20025;-71
2022/09/06 01:47:29;;;;;;;8.85;5.60;;;;;;;17.09;69.00;100093.19;5033645;28;20072;-71
2022/09/06 01:50:09;;;;;;;8.00;4.68;;;;;;;17.19;68.75;100086.16;5016253;28;20120;-70
2022/09/06 01:53:02;;;;;;;20.02;9.40;;;;;;;17.23;68.49;100082.22;5034211;28;20031;-71
2022/09/06 01:55:38;;;;;;;22.70;11.23;;;;;;;17.32;68.20;100079.25;5014235;28;20030;-71
2022/09/06 01:58:25;;;;;;;27.15;12.60;;;;;;;17.24;68.32;100071.75;5021624;28;20412;-71
2022/09/06 02:01:12;;;;;;;19.60;10.15;;;;;;;17.33;68.20;100077.22;5014267;28;20487;-71
2022/09/06 02:03:52;;;;;;;24.23;10.50;;;;;;;17.44;67.50;100080.31;5028260;28;20111;-71
2022/09/06 02:06:22;;;;;;;19.17;8.15;;;;;;;17.39;67.54;100079.41;5015975;28;20036;-71
2022/09/06 02:08:53;;;;;;;16.20;6.97;;;;;;;17.23;68.04;100079.41;5032872;28;20034;-71
2022/09/06 02:11:20;;;;;;;8.75;5.53;;;;;;;17.29;67.73;100074.28;5033730;28;20040;-71
2022/09/06 02:14:02;;;;;;;8.10;6.38;;;;;;;17.33;67.45;100086.53;5033400;28;20021;-71
2022/09/06 02:16:31;;;;;;;12.35;5.53;;;;;;;17.29;67.39;100073.50;5016019;28;20033;-71
2022/09/06 02:19:05;;;;;;;12.10;5.75;;;;;;;17.45;67.06;100082.75;5036982;28;20096;-72
2022/09/06 02:21:35;;;;;;;10.50;5.78;;;;;;;17.21;67.79;100072.50;5012498;28;20029;-71
2022/09/06 02:24:06;;;;;;;8.95;5.82;;;;;;;17.31;67.93;100065.47;5030006;28;20025;-71
2022/09/06 02:26:37;;;;;;;9.05;5.72;;;;;;;17.28;68.04;100067.00;5033232;28;20053;-71
2022/09/06 02:29:03;;;;;;;12.18;6.15;;;;;;;17.30;68.39;100069.47;5007316;28;20033;-72
2022/09/06 02:31:34;;;;;;;9.45;6.03;;;;;;;17.29;67.99;100081.97;5013456;28;20025;-72
2022/09/06 02:34:01;;;;;;;7.38;5.60;;;;;;;17.23;68.37;100075.78;5013796;28;20029;-71
2022/09/06 02:36:29;;;;;;;8.27;5.88;;;;;;;17.24;68.61;100078.22;5025820;28;20025;-71
2022/09/06 02:38:55;;;;;;;6.68;6.00;;;;;;;17.22;68.69;100071.31;5013581;28;20112;-71
2022/09/06 02:41:23;;;;;;;7.80;5.55;;;;;;;17.29;68.30;100067.84;5019163;28;20045;-72
2022/09/06 02:43:49;;;;;;;9.13;6.00;;;;;;;17.31;67.66;100071.91;5030954;28;20088;-71
2022/09/06 02:46:14;;;;;;;9.40;5.88;;;;;;;17.30;67.33;100070.28;5005602;28;20049;-71
2022/09/06 02:48:40;;;;;;;12.10;5.82;;;;;;;17.26;67.44;100064.56;5032704;28;20524;-71
2022/09/06 02:51:07;;;;;;;8.23;5.38;;;;;;;17.10;68.25;100055.25;5032803;28;20017;-71
2022/09/06 02:53:33;;;;;;;9.07;5.78;;;;;;;16.89;69.74;100063.97;5014364;28;20128;-71
2022/09/06 02:55:59;;;;;;;6.38;5.78;;;;;;;17.16;68.73;100078.41;5031439;28;20480;-71
2022/09/06 02:58:25;;;;;;;10.75;5.90;;;;;;;17.18;68.20;100074.03;5014785;28;20607;-71
2022/09/06 03:00:51;;;;;;;14.98;6.07;;;;;;;17.24;67.60;100074.59;5032316;28;20023;-71
2022/09/06 03:03:21;;;;;;;13.50;5.47;;;;;;;17.26;67.46;100078.69;5031002;28;20055;-71
2022/09/06 03:05:48;;;;;;;7.35;5.90;;;;;;;17.24;68.00;100085.91;5006520;28;20040;-71
2022/09/06 03:08:15;;;;;;;11.48;7.07;;;;;;;16.73;70.46;100081.75;5032028;28;20164;-71
2022/09/06 03:10:48;;;;;;;11.45;7.47;;;;;;;16.42;71.48;100089.78;5014472;28;20473;-71
2022/09/06 03:13:13;;;;;;;10.23;7.13;;;;;;;15.95;73.26;100079.94;5032700;28;20366;-71
2022/09/06 03:15:39;;;;;;;11.90;7.93;;;;;;;15.76;74.63;100083.38;5021872;28;20037;-71
2022/09/06 03:18:04;;;;;;;12.93;7.72;;;;;;;15.30;76.75;100094.81;5012075;28;20029;-72
2022/09/06 03:20:34;;;;;;;10.10;8.25;;;;;;;14.75;79.19;100094.97;4992443;28;20079;-73
2022/09/06 03:22:59;;;;;;;11.10;8.57;;;;;;;14.57;81.53;100094.31;5013431;28;20042;-73
2022/09/06 03:25:25;;;;;;;15.35;9.02;;;;;;;14.57;81.04;100094.31;5014743;28;20041;-73
2022/09/06 03:27:51;;;;;;;14.63;9.48;;;;;;;14.41;82.08;100102.56;4993018;28;20029;-73
2022/09/06 03:30:17;;;;;;;18.75;9.35;;;;;;;14.31;83.13;100096.22;5012373;28;20033;-73
2022/09/06 03:32:42;;;;;;;12.23;8.82;;;;;;;14.23;83.00;100090.66;5011177;28;20040;-73
2022/09/06 03:35:08;;;;;;;12.18;8.38;;;;;;;14.32;83.16;100094.22;5016393;28;20029;-73
2022/09/06 03:37:34;;;;;;;14.07;8.65;;;;;;;14.32;83.32;100095.06;5012836;28;20028;-72
2022/09/06 03:40:01;;;;;;;10.18;8.10;;;;;;;14.36;83.15;100094.34;5012960;28;20408;-73
2022/09/06 03:42:26;;;;;;;9.95;8.88;;;;;;;14.25;83.80;100094.78;5012518;28;20050;-73
2022/09/06 03:44:52;;;;;;;12.93;8.13;;;;;;;14.25;84.23;100096.78;5014285;28;20037;-73
2022/09/06 03:47:19;;;;;;;16.13;9.07;;;;;;;14.31;83.29;100093.41;5023833;28;20167;-74
2022/09/06 03:49:44;;;;;;;14.27;8.93;;;;;;;14.15;83.87;100096.03;5014006;28;20135;-73
2022/09/06 03:52:10;;;;;;;14.75;9.60;;;;;;;14.16;83.91;100096.84;5029664;28;20021;-74
2022/09/06 03:54:35;;;;;;;52.80;10.93;;;;;;;14.13;84.51;100104.00;5031236;28;20029;-74
2022/09/06 03:57:01;;;;;;;14.30;9.48;;;;;;;14.05;84.58;100102.06;5016797;28;20025;-73
2022/09/06 03:59:26;;;;;;;11.07;8.70;;;;;;;14.11;84.50;100097.88;5009261;28;20029;-72
2022/09/06 04:01:52;;;;;;;13.98;9.20;;;;;;;13.94;85.12;100098.03;5011974;28;20164;-73
2022/09/06 04:04:17;;;;;;;17.50;10.25;;;;;;;13.89;85.94;100094.25;5014908;28;20091;-73
2022/09/06 04:06:43;;;;;;;15.30;9.70;;;;;;;13.90;86.29;100095.91;5012177;28;20033;-73
2022/09/06 04:09:08;;;;;;;21.40;10.60;;;;;;;14.11;85.66;100106.31;5027589;28;20468;-73
2022/09/06 04:11:34;;;;;;;14.85;9.23;;;;;;;14.22;84.98;100105.88;5013917;28;20044;-74
2022/09/06 04:13:59;;;;;;;11.50;8.50;;;;;;;14.40;84.12;100107.38;5031543;28;20032;-74
2022/09/06 04:16:25;;;;;;;13.65;9.02;;;;;;;14.45;83.29;100118.41;5022493;28;20033;-74
2022/09/06 04:18:50;;;;;;;12.32;9.60;;;;;;;14.50;82.55;100110.94;5030399;28;20041;-73
2022/09/06 04:21:16;;;;;;;17.27;8.73;;;;;;;14.29;83.33;100101.34;5013705;28;20376;-74
2022/09/06 04:23:42;;;;;;;15.35;9.77;;;;;;;14.17;84.80;100115.34;5034690;28;20384;-74
2022/09/06 04:26:07;;;;;;;68.07;10.25;;;;;;;14.38;83.86;100115.38;5034020;28;20041;-73
2022/09/06 04:28:33;;;;;;;12.10;8.70;;;;;;;14.54;82.98;100115.53;5013650;28;20034;-73
2022/09/06 04:31:01;;;;;;;15.10;8.10;;;;;;;14.58;83.25;100113.66;5030790;28;20036;-73
2022/09/06 04:33:28;;;;;;;19.83;8.60;;;;;;;14.62;82.93;100111.00;5035353;28;20032;-72
2022/09/06 04:35:58;;;;;;;19.13;9.13;;;;;;;14.90;81.77;100113.19;5033349;28;20029;-75
2022/09/06 04:38:25;;;;;;;;;;;;;;;15.22;80.06;100126.75;5036038;28;20100;-76
2022/09/06 04:40:50;;;;;;;15.55;7.90;;;;;;;15.45;78.87;100118.66;5035527;28;20020;-76
2022/09/06 04:43:16;;;;;;;16.90;9.52;;;;;;;15.62;77.72;100113.94;5015819;28;20041;-74
2022/09/06 04:45:43;;;;;;;10.32;7.63;;;;;;;15.52;78.16;100115.25;5018190;28;20033;-74
2022/09/06 04:48:08;;;;;;;23.77;8.45;;;;;;;15.54;78.71;100115.72;5033589;28;20025;-74
2022/09/06 04:50:34;;;;;;;13.88;8.00;;;;;;;15.66;78.12;100112.06;5034676;28;20514;-74
2022/09/06 04:52:59;;;;;;;14.02;7.80;;;;;;;15.63;78.49;100113.59;5016039;28;20071;-75
2022/09/06 04:55:25;;;;;;;14.98;7.97;;;;;;;15.62;78.85;100114.75;5029828;28;20036;-74
2022/09/06 04:57:51;;;;;;;15.68;8.02;;;;;;;15.40;79.47;100114.09;5036397;28;20013;-74
2022/09/06 05:00:17;;;;;;;13.43;8.15;;;;;;;15.33;80.08;100118.66;5052889;28;20131;-74
2022/09/06 05:02:43;;;;;;;14.60;8.25;;;;;;;15.03;81.20;100091.53;5034234;28;20026;-74
2022/09/06 05:05:09;;;;;;;16.70;8.88;;;;;;;15.33;81.14;100125.09;5016351;28;20021;-74
2022/09/06 05:07:35;;;;;;;9.98;7.63;;;;;;;15.55;79.76;100114.53;5029647;28;20025;-74
2022/09/06 05:10:00;;;;;;;13.73;8.35;;;;;;;15.29;81.24;100096.81;5019669;28;20037;-74
2022/09/06 05:12:26;;;;;;;11.80;7.50;;;;;;;15.67;79.42;100108.06;5017956;28;20029;-74
2022/09/06 05:14:51;;;;;;;11.70;7.55;;;;;;;15.90;78.23;100107.59;5003952;28;20026;-74
2022/09/06 05:17:17;;;;;;;9.85;7.93;;;;;;;16.03;78.25;100108.38;5005265;28;20088;-74
2022/09/06 05:19:42;;;;;;;14.85;8.50;;;;;;;15.93;78.27;100112.53;5028936;28;20026;-74
2022/09/06 05:22:10;;;;;;;10.95;8.20;;;;;;;15.89;78.48;100112.38;5030448;28;20554;-74
2022/09/06 05:24:35;;;;;;;9.20;7.88;;;;;;;16.02;78.26;100107.56;5028752;28;20407;-74
2022/09/06 05:27:03;;;;;;;11.77;7.90;;;;;;;16.19;77.56;100097.97;5032753;28;20026;-74
2022/09/06 05:29:29;;;;;;;12.13;7.65;;;;;;;16.16;77.57;100104.34;5031640;28;20583;-75
2022/09/06 05:31:54;;;;;;;18.42;8.70;;;;;;;16.12;78.11;100104.22;5033001;28;20030;-76
2022/09/06 05:34:20;;;;;;;12.30;8.43;;;;;;;16.30;77.26;100108.75;5031350;28;20021;-75
2022/09/06 05:36:45;;;;;;;10.32;8.43;;;;;;;16.19;77.88;100094.34;5040647;28;20048;-77
2022/09/06 05:39:10;;;;;;;9.75;8.30;;;;;;;16.48;77.21;100110.13;5014018;28;20542;-76
2022/09/06 05:41:36;;;;;;;14.35;8.48;;;;;;;16.58;77.27;100105.94;5035123;28;20107;-73
2022/09/06 05:44:02;;;;;;;14.02;9.32;;;;;;;16.42;76.18;100101.09;5034036;28;20427;-72
2022/09/06 05:46:28;;;;;;;13.25;8.38;;;;;;;16.60;75.91;100109.22;5032159;28;20108;-74
2022/09/06 05:49:03;;;;;;;10.00;7.82;;;;;;;16.70;75.25;100108.69;5032873;28;20532;-73
2022/09/06 05:51:30;;;;;;;12.52;8.20;;;;;;;16.85;74.37;100100.59;5015345;28;20128;-73
2022/09/06 05:53:55;;;;;;;19.00;8.88;;;;;;;16.83;74.68;100097.34;5014470;28;20403;-76
2022/09/06 05:56:21;;;;;;;12.02;8.63;;;;;;;16.82;74.59;100095.69;5041922;28;20028;-73
2022/09/06 05:58:46;;;;;;;10.10;7.20;;;;;;;16.72;74.34;100090.56;5049720;28;20411;-78
2022/09/06 06:01:26;;;;;;;13.85;8.15;;;;;;;16.84;74.28;100087.66;5014164;28;20025;-74
2022/09/06 06:03:57;;;;;;;12.25;7.57;;;;;;;17.07;73.39;100104.84;5033156;28;20029;-77
2022/09/06 06:06:25;;;;;;;8.55;7.63;;;;;;;16.91;73.13;100092.69;5032881;28;20061;-72
2022/09/06 06:08:50;;;;;;;10.80;7.55;;;;;;;16.91;73.69;100087.88;5015813;28;20025;-74
2022/09/06 06:11:16;;;;;;;11.43;7.85;;;;;;;16.85;72.28;100089.31;5046013;28;20047;-74
2022/09/06 06:13:43;;;;;;;9.13;8.02;;;;;;;16.96;72.44;100087.59;5034481;28;20079;-73
2022/09/06 06:16:11;;;;;;;23.42;10.05;;;;;;;17.25;71.01;100090.34;5014343;28;20021;-75
2022/09/06 06:18:37;;;;;;;18.25;7.78;;;;;;;17.02;71.38;100087.38;5030575;28;20117;-73
2022/09/06 06:21:15;;;;;;;9.88;7.53;;;;;;;17.33;70.63;100092.19;5028902;28;20405;-76
2022/09/06 06:23:43;;;;;;;10.70;8.20;;;;;;;17.61;70.48;100096.03;5028444;28;20103;-73
2022/09/06 06:26:10;;;;;;;9.52;7.40;;;;;;;17.81;69.94;100085.63;5030064;28;20020;-73
2022/09/06 06:28:36;;;;;;;15.13;7.82;;;;;;;17.85;69.82;100089.34;5030291;28;20104;-73
2022/09/06 06:31:04;;;;;;;8.57;7.05;;;;;;;17.62;69.70;100086.41;5011530;28;20089;-74
2022/09/06 06:33:29;;;;;;;8.40;6.47;;;;;;;17.83;69.66;100084.03;5018304;28;20108;-74
2022/09/06 06:36:20;;;;;;;13.45;7.00;;;;;;;17.71;69.83;100087.00;5013149;28;20132;-74
2022/09/06 06:38:47;;;;;;;18.50;7.05;;;;;;;17.69;70.01;100078.06;5027493;28;20025;-74
2022/09/06 06:41:15;;;;;;;11.07;6.97;;;;;;;17.97;68.99;100085.53;5032356;28;20397;-74
2022/09/06 06:43:40;;;;;;;11.55;5.53;;;;;;;18.09;67.44;100076.94;5030991;28;20133;-74
2022/09/06 06:46:08;;;;;;;12.25;6.07;;;;;;;18.31;68.06;100087.91;5028806;28;20475;-74
2022/09/06 06:48:35;;;;;;;10.32;5.75;;;;;;;18.25;67.24;100090.22;5021230;28;20032;-73
2022/09/06 06:51:01;;;;;;;8.68;6.05;;;;;;;18.43;67.21;100078.44;5010078;28;20029;-73
2022/09/06 06:53:27;;;;;;;13.70;5.55;;;;;;;18.67;65.96;100086.59;5028394;28;20028;-73
2022/09/06 06:55:53;;;;;;;11.25;6.45;;;;;;;18.75;65.62;100084.72;5030217;28;20021;-73
2022/09/06 06:58:19;;;;;;;9.32;6.28;;;;;;;18.67;65.90;100086.59;5027406;28;20018;-73
2022/09/06 07:00:45;;;;;;;12.02;5.93;;;;;;;18.80;65.49;100072.25;5028024;28;20086;-73
2022/09/06 07:03:11;;;;;;;6.93;5.45;;;;;;;18.25;66.16;100078.91;5026116;28;20021;-76
2022/09/06 07:05:37;;;;;;;7.47;5.40;;;;;;;18.60;65.19;100077.97;5024572;28;20484;-74
2022/09/06 07:08:04;;;;;;;8.05;6.82;;;;;;;18.42;66.75;100080.47;5039519;28;20120;-74
2022/09/06 07:10:30;;;;;;;7.53;5.47;;;;;;;18.73;65.84;100072.13;5048265;28;20450;-74
2022/09/06 07:12:56;;;;;;;7.53;5.90;;;;;;;19.03;64.37;100074.31;5013144;28;20025;-75
2022/09/06 07:15:21;;;;;;;10.40;5.38;;;;;;;19.14;63.65;100072.47;5014569;28;20104;-74
2022/09/06 07:17:47;;;;;;;10.10;6.28;;;;;;;19.42;63.30;100070.50;5013864;28;20407;-74
2022/09/06 07:20:12;;;;;;;8.85;5.30;;;;;;;19.53;62.17;100064.97;5030350;28;20064;-75
2022/09/06 07:22:39;;;;;;;6.22;5.10;;;;;;;19.88;62.33;100073.19;5011535;28;20033;-73
2022/09/06 07:25:05;;;;;;;12.80;5.40;;;;;;;19.98;61.19;100063.22;5043163;28;20032;-73
2022/09/06 07:27:31;;;;;;;5.63;5.13;;;;;;;20.23;60.69;100065.56;5043740;28;20132;-74
2022/09/06 07:29:56;;;;;;;10.48;5.57;;;;;;;20.49;59.52;100069.50;5030943;28;20035;-72
2022/09/06 07:32:22;;;;;;;5.50;4.55;;;;;;;20.62;58.75;100070.88;5028572;28;20021;-73
2022/09/06 07:34:47;;;;;;;7.82;5.13;;;;;;;20.75;58.55;100068.56;5026604;28;20057;-73
2022/09/06 07:37:13;;;;;;;8.10;5.28;;;;;;;20.82;58.18;100070.69;5027139;28;20015;-73
2022/09/06 07:39:40;;;;;;;12.73;4.90;;;;;;;20.77;57.70;100071.03;5028262;28;20041;-75
2022/09/06 07:42:05;;;;;;;13.93;5.05;;;;;;;20.80;57.23;100072.25;5038372;28;20053;-74
2022/09/06 07:44:31;;;;;;;9.40;4.95;;;;;;;20.81;56.98;100074.75;5030612;28;20033;-73
2022/09/06 07:46:56;;;;;;;7.30;5.07;;;;;;;20.57;57.97;100073.25;5026488;28;20033;-74
2022/09/06 07:49:22;;;;;;;4.85;4.20;;;;;;;20.43;58.44;100071.06;5020444;28;20409;-74
2022/09/06 07:51:47;;;;;;;8.73;5.43;;;;;;;20.69;59.39;100072.16;5022637;28;20028;-75
2022/09/06 07:54:13;;;;;;;6.68;4.63;;;;;;;20.97;57.64;100065.16;5025881;28;20393;-75
2022/09/06 07:56:38;;;;;;;8.45;5.15;;;;;;;20.92;57.22;100071.19;5019432;28;20493;-75
2022/09/06 07:59:04;;;;;;;9.98;4.63;;;;;;;20.79;57.26;100065.78;5013845;28;20025;-75
2022/09/06 08:01:33;;;;;;;12.13;5.35;;;;;;;21.16;57.72;100053.53;5025938;28;20025;-76
2022/09/06 08:04:11;;;;;;;6.82;4.00;;;;;;;20.42;58.05;100053.19;5008569;28;20025;-76
2022/09/06 08:06:40;;;;;;;6.68;4.72;;;;;;;20.93;58.24;100064.31;5018993;28;20049;-75
2022/09/06 08:09:07;;;;;;;4.65;4.22;;;;;;;21.09;57.65;100055.53;5005955;28;20025;-76
2022/09/06 08:11:34;;;;;;;6.72;4.55;;;;;;;21.45;57.38;100053.75;5001614;28;20121;-75
2022/09/06 08:14:02;;;;;;;8.27;4.85;;;;;;;21.26;56.31;100057.69;5026261;28;20048;-76
2022/09/06 08:16:30;;;;;;;20.02;4.63;;;;;;;20.58;57.07;100044.44;5005422;28;20036;-75
2022/09/06 08:19:01;;;;;;;8.50;4.72;;;;;;;21.04;57.80;100048.97;5029623;28;20044;-75
2022/09/06 08:21:29;;;;;;;6.88;4.68;;;;;;;21.48;56.69;100043.63;5030930;28;20607;-75
2022/09/06 08:23:57;;;;;;;7.85;4.75;;;;;;;21.59;55.47;100047.34;5028688;28;20032;-76
2022/09/06 08:26:26;;;;;;;8.90;4.95;;;;;;;21.31;55.17;100030.91;5029469;28;20056;-76
2022/09/06 08:29:00;;;;;;;11.00;5.05;;;;;;;21.88;54.70;100029.66;5010441;28;20488;-75
2022/09/06 08:31:30;;;;;;;7.35;4.32;;;;;;;22.27;53.68;100031.03;5020997;28;20037;-75
2022/09/06 08:33:57;;;;;;;6.20;4.15;;;;;;;22.47;53.54;100031.50;5021404;28;20045;-78
2022/09/06 08:36:29;;;;;;;7.03;3.78;;;;;;;22.45;52.94;100033.94;5021658;28;20040;-75
2022/09/06 08:38:56;;;;;;;7.28;4.38;;;;;;;22.69;51.97;100028.72;5003231;28;20025;-75
2022/09/06 08:41:50;;;;;;;10.32;5.25;;;;;;;22.99;51.70;100036.91;5028796;28;20128;-74
2022/09/06 08:44:36;;;;;;;8.00;4.53;;;;;;;22.98;50.68;100026.69;5005899;28;20041;-73
2022/09/06 08:47:10;;;;;;;6.32;4.55;;;;;;;22.75;50.98;100027.09;5022894;28;20584;-73
2022/09/06 08:49:47;;;;;;;8.02;4.65;;;;;;;22.52;51.97;100007.50;5030402;28;20034;-75
2022/09/06 08:52:21;;;;;;;5.07;3.88;;;;;;;22.96;51.08;100014.06;5028535;28;20083;-74
2022/09/06 08:55:01;;;;;;;6.95;4.55;;;;;;;22.96;51.22;100014.06;5024726;28;20036;-75
2022/09/06 08:57:39;;;;;;;7.85;4.70;;;;;;;22.95;50.95;100015.28;5013322;28;20017;-75
2022/09/06 09:00:08;;;;;;;7.97;5.18;;;;;;;22.92;50.32;99999.81;5027552;28;20508;-75
2022/09/06 09:02:54;;;;;;;4.88;4.32;;;;;;;23.03;50.58;100013.25;5029337;28;20108;-75
2022/09/06 09:05:32;;;;;;;7.45;4.32;;;;;;;23.13;49.66;100001.03;5029049;28;20025;-74
2022/09/06 09:08:05;;;;;;;11.35;5.22;;;;;;;23.09;50.25;99995.31;5027823;28;20068;-74
2022/09/06 09:10:43;;;;;;;5.75;4.40;;;;;;;23.35;49.64;100010.41;5005314;28;20025;-74
2022/09/06 09:13:23;;;;;;;10.13;5.00;;;;;;;22.98;49.80;99997.38;5003575;28;20495;-74
2022/09/06 09:15:48;;;;;;;9.07;4.65;;;;;;;23.39;49.77;99998.97;5019817;28;20052;-75
2022/09/06 09:18:20;;;;;;;9.15;4.68;;;;;;;23.63;49.34;99985.84;5023073;28;20435;-74
2022/09/06 09:20:45;;;;;;;7.60;4.85;;;;;;;23.58;49.07;99989.16;5006891;28;20525;-75
2022/09/06 09:23:11;;;;;;;5.60;4.78;;;;;;;23.60;49.69;99988.75;5026077;28;20026;-75
2022/09/06 09:25:38;;;;;;;8.02;4.25;;;;;;;23.80;49.67;99981.31;5012237;28;20057;-74
2022/09/06 09:28:16;;;;;;;5.38;4.75;;;;;;;23.64;48.57;99978.91;5032569;28;20056;-75
2022/09/06 09:30:53;;;;;;;14.50;4.35;;;;;;;23.74;47.90;99973.59;5029442;28;20033;-75
2022/09/06 09:33:35;;;;;;;10.35;4.45;;;;;;;24.05;47.35;99962.47;5032443;28;20027;-74
2022/09/06 09:36:06;;;;;;;7.10;3.90;;;;;;;24.27;47.15;99963.16;5033807;28;20025;-75
2022/09/06 09:38:43;;;;;;;6.38;4.15;;;;;;;24.32;46.09;99953.34;5033695;28;20017;-74
2022/09/06 09:41:22;;;;;;;5.60;4.75;;;;;;;24.28;46.38;99950.50;5011244;28;20032;-73
2022/09/06 09:44:04;;;;;;;4.45;3.80;;;;;;;24.35;47.82;99949.63;5031611;28;20119;-75
2022/09/06 09:46:34;;;;;;;7.80;4.72;;;;;;;24.44;46.08;99952.84;5032886;28;20045;-75
2022/09/06 09:49:02;;;;;;;6.90;3.97;;;;;;;24.42;45.95;99952.47;5018233;28;20026;-74
2022/09/06 09:51:30;;;;;;;4.10;3.70;;;;;;;24.38;45.98;99945.97;5030032;28;20104;-75
2022/09/06 09:54:02;;;;;;;138.48;15.70;;;;;;;24.54;46.19;99949.09;5025819;28;20060;-76
2022/09/06 09:56:42;;;;;;;5.38;4.00;;;;;;;24.60;45.09;99943.75;5034440;28;20476;-75
2022/09/06 09:59:20;;;;;;;5.90;3.80;;;;;;;24.68;44.20;99947.34;5030634;28;20087;-75
2022/09/06 10:01:45;;;;;;;6.30;4.07;;;;;;;24.79;44.76;99935.84;5032912;28;20037;-74
2022/09/06 10:04:17;;;;;;;7.13;3.40;;;;;;;24.84;44.13;99943.16;5028086;28;20036;-75
2022/09/06 10:06:43;;;;;;;8.48;4.57;;;;;;;24.37;44.83;99927.97;5024937;28;20159;-74
2022/09/06 10:09:17;;;;;;;7.75;4.80;;;;;;;25.07;44.92;99923.31;5012249;28;20125;-75
2022/09/06 10:11:53;;;;;;;7.95;4.78;;;;;;;25.22;44.48;99926.06;5009764;28;20493;-78
2022/09/06 10:14:51;;;;;;;6.90;4.57;;;;;;;24.99;43.33;99927.50;5010973;28;20456;-77
2022/09/06 10:17:29;;;;;;;7.05;4.35;;;;;;;24.97;43.20;99912.78;4988507;28;20415;-79
2022/09/06 10:19:55;;;;;;;4.90;4.35;;;;;;;24.93;44.33;99912.84;5031223;28;20028;-77
2022/09/06 10:22:34;;;;;;;6.15;4.10;;;;;;;25.21;44.47;99910.94;5025628;28;20523;-79
2022/09/06 10:25:22;;;;;;;12.40;6.32;;;;;;;25.42;43.04;99913.97;5031297;28;20112;-77
2022/09/06 10:27:54;;;;;;;7.55;4.15;;;;;;;25.37;43.39;99916.06;5011944;28;20108;-76
2022/09/06 10:30:21;;;;;;;19.33;4.22;;;;;;;25.37;42.45;99900.94;5027793;28;20091;-74
2022/09/06 10:33:04;;;;;;;17.35;5.07;;;;;;;25.34;43.23;99902.63;5009808;28;20033;-73
2022/09/06 10:35:34;;;;;;;5.20;3.95;;;;;;;25.65;41.44;99899.00;5028027;28;20033;-73
2022/09/06 10:38:08;;;;;;;4.15;3.47;;;;;;;25.70;40.61;99889.09;5026974;28;20025;-72
2022/09/06 10:40:34;;;;;;;5.15;4.00;;;;;;;25.48;41.52;99890.16;5025677;28;20428;-73
2022/09/06 10:43:02;;;;;;;4.82;3.60;;;;;;;25.55;40.76;99885.63;5012715;28;20045;-73
2022/09/06 10:45:53;;;;;;;7.55;3.30;;;;;;;25.81;40.28;99889.75;5009435;28;20037;-73
2022/09/06 10:48:29;;;;;;;4.55;3.28;;;;;;;25.95;39.17;99879.38;5027039;28;20488;-73
2022/09/06 10:51:00;;;;;;;3.35;3.05;;;;;;;25.76;38.95;99878.81;5026031;28;20037;-73
2022/09/06 10:53:51;;;;;;;12.73;4.45;;;;;;;26.08;40.73;99878.31;5027421;28;21672;-72
2022/09/06 10:56:31;;;;;;;6.38;3.88;;;;;;;26.24;40.68;99870.34;5027330;28;20025;-73
2022/09/06 10:59:20;;;;;;;5.28;3.60;;;;;;;26.33;40.26;99882.88;5010651;28;20028;-73
2022/09/06 11:01:57;;;;;;;6.47;3.47;;;;;;;26.55;38.70;99876.00;5010601;28;20519;-73
2022/09/06 11:04:35;;;;;;;4.47;3.55;;;;;;;26.31;38.68;99865.31;5026179;28;20079;-73
2022/09/06 11:07:10;;;;;;;5.25;2.83;;;;;;;26.11;38.74;99872.97;5007339;28;20041;-73
2022/09/06 11:09:50;;;;;;;6.05;3.83;;;;;;;26.30;38.50;99863.69;5030502;28;20109;-73
2022/09/06 11:12:27;;;;;;;3.55;3.25;;;;;;;26.44;38.22;99874.13;5022776;28;20104;-73
2022/09/06 11:14:52;;;;;;;3.75;2.80;;;;;;;26.23;38.08;99863.00;5030057;28;20059;-73
2022/09/06 11:17:34;;;;;;;13.27;4.28;;;;;;;26.65;38.52;99871.31;5030118;28;20029;-73
2022/09/06 11:20:33;;;;;;;3.30;3.00;;;;;;;26.55;37.63;99861.66;5028399;28;20025;-73
2022/09/06 11:23:17;;;;;;;3.17;2.95;;;;;;;26.56;36.68;99851.81;5022008;28;20045;-74
2022/09/06 11:25:55;;;;;;;3.05;2.75;;;;;;;26.92;38.01;99859.81;5026060;28;20033;-72
2022/09/06 11:28:33;;;;;;;5.70;3.47;;;;;;;27.03;37.93;99854.66;5011869;28;20068;-73
2022/09/06 11:30:59;;;;;;;3.92;2.50;;;;;;;26.49;36.58;99852.75;5026032;28;20025;-73
2022/09/06 11:33:34;;;;;;;7.03;3.42;;;;;;;26.53;38.53;99839.16;5019465;28;20037;-72
2022/09/06 11:36:34;;;;;;;5.32;2.92;;;;;;;26.84;37.88;99838.19;5028794;28;20022;-73
2022/09/06 11:39:02;;;;;;;5.97;3.40;;;;;;;26.93;37.73;99840.50;5024024;28;20022;-72